sensor_id;sensor_type;location;lat;lon;timestamp;temperature;humidity
21298;DHT22;10808;48.010;11.326;2023-04-24T00:00:04;11.80;99.90
21298;DHT22;10808;48.010;11.326;2023-04-24T00:02:38;11.80;99.90
21298;DHT22;10808;48.010;11.326;2023-04-24T00:05:06;11.80;99.90
21298;DHT22;10808;48.010;11.326;2023-04-24T00:07:33;11.80;99.90
21298;DHT22;10808;48.010;11.326;2023-04-24T00:10:00;11.80;99.90
21298;DHT22;10808;48.010;11.326;2023-04-24T00:12:26;11.80;99.90
21298;DHT22;10808;48.010;11.326;2023-04-24T00:14:52;11.70;99.90
21298;DHT22;10808;48.010;11.326;2023-04-24T00:17:19;11.70;99.90
21298;DHT22;10808;48.010;11.326;2023-04-24T00:19:48;11.70;99.90
21298;DHT22;10808;48.010;11.326;2023-04-24T00:22:16;11.70;99.90
21298;DHT22;10808;48.010;11.326;2023-04-24T00:24:43;11.60;99.90
21298;DHT22;10808;48.010;11.326;2023-04-24T00:27:09;11.60;99.90
21298;DHT22;10808;48.010;11.326;2023-04-24T00:29:35;11.50;99.90
21298;DHT22;10808;48.010;11.326;2023-04-24T00:32:01;11.50;99.90
21298;DHT22;10808;48.010;11.326;2023-04-24T00:34:27;11.50;99.90
21298;DHT22;10808;48.010;11.326;2023-04-24T00:36:53;11.40;99.90
21298;DHT22;10808;48.010;11.326;2023-04-24T00:39:19;11.40;99.90
21298;DHT22;10808;48.010;11.326;2023-04-24T00:41:46;11.30;99.90
21298;DHT22;10808;48.010;11.326;2023-04-24T00:44:13;11.40;99.90
21298;DHT22;10808;48.010;11.326;2023-04-24T00:46:39;11.30;99.90
21298;DHT22;10808;48.010;11.326;2023-04-24T00:49:05;11.30;99.90
21298;DHT22;10808;48.010;11.326;2023-04-24T00:51:32;11.30;99.90
21298;DHT22;10808;48.010;11.326;2023-04-24T00:53:59;11.30;99.90
21298;DHT22;10808;48.010;11.326;2023-04-24T00:56:26;11.30;99.90
21298;DHT22;10808;48.010;11.326;2023-04-24T00:58:53;11.20;99.90
21298;DHT22;10808;48.010;11.326;2023-04-24T01:01:20;11.10;99.90
21298;DHT22;10808;48.010;11.326;2023-04-24T01:03:51;11.00;99.90
21298;DHT22;10808;48.010;11.326;2023-04-24T01:06:18;10.90;99.90
21298;DHT22;10808;48.010;11.326;2023-04-24T01:08:45;10.90;99.90
21298;DHT22;10808;48.010;11.326;2023-04-24T01:11:12;10.80;99.90
21298;DHT22;10808;48.010;11.326;2023-04-24T01:13:38;10.70;99.90
21298;DHT22;10808;48.010;11.326;2023-04-24T01:16:05;10.70;99.90
21298;DHT22;10808;48.010;11.326;2023-04-24T01:18:32;10.60;99.90
21298;DHT22;10808;48.010;11.326;2023-04-24T01:20:59;10.60;99.90
21298;DHT22;10808;48.010;11.326;2023-04-24T01:23:28;10.50;99.90
21298;DHT22;10808;48.010;11.326;2023-04-24T01:25:55;10.50;99.90
21298;DHT22;10808;48.010;11.326;2023-04-24T01:28:21;10.50;99.90
21298;DHT22;10808;48.010;11.326;2023-04-24T01:30:48;10.50;99.90
21298;DHT22;10808;48.010;11.326;2023-04-24T01:33:14;10.50;99.90
21298;DHT22;10808;48.010;11.326;2023-04-24T01:35:41;10.50;99.90
21298;DHT22;10808;48.010;11.326;2023-04-24T01:38:07;10.40;99.90
21298;DHT22;10808;48.010;11.326;2023-04-24T01:40:33;10.40;99.90
21298;DHT22;10808;48.010;11.326;2023-04-24T01:43:00;10.40;99.90
21298;DHT22;10808;48.010;11.326;2023-04-24T01:45:26;10.40;99.90
21298;DHT22;10808;48.010;11.326;2023-04-24T01:47:52;10.40;99.90
21298;DHT22;10808;48.010;11.326;2023-04-24T01:50:18;10.40;99.90
21298;DHT22;10808;48.010;11.326;2023-04-24T01:52:44;10.30;99.90
21298;DHT22;10808;48.010;11.326;2023-04-24T01:55:11;10.30;99.90
21298;DHT22;10808;48.010;11.326;2023-04-24T01:57:37;10.30;99.90
21298;DHT22;10808;48.010;11.326;2023-04-24T02:00:04;10.30;99.90
21298;DHT22;10808;48.010;11.326;2023-04-24T02:02:30;10.30;99.90
21298;DHT22;10808;48.010;11.326;2023-04-24T02:04:57;10.30;99.90
21298;DHT22;10808;48.010;11.326;2023-04-24T02:07:23;10.30;99.90
21298;DHT22;10808;48.010;11.326;2023-04-24T02:09:49;10.30;99.90
21298;DHT22;10808;48.010;11.326;2023-04-24T02:12:15;10.30;99.90
21298;DHT22;10808;48.010;11.326;2023-04-24T02:14:43;10.30;99.90
21298;DHT22;10808;48.010;11.326;2023-04-24T02:17:09;10.30;99.90
21298;DHT22;10808;48.010;11.326;2023-04-24T02:19:35;10.30;99.90
21298;DHT22;10808;48.010;11.326;2023-04-24T02:22:01;10.30;99.90
21298;DHT22;10808;48.010;11.326;2023-04-24T02:24:27;10.30;99.90
21298;DHT22;10808;48.010;11.326;2023-04-24T02:26:53;10.30;99.90
21298;DHT22;10808;48.010;11.326;2023-04-24T02:29:19;10.30;99.90
21298;DHT22;10808;48.010;11.326;2023-04-24T02:31:45;10.30;99.90
21298;DHT22;10808;48.010;11.326;2023-04-24T02:34:11;10.40;99.90
21298;DHT22;10808;48.010;11.326;2023-04-24T02:36:37;10.30;99.90
21298;DHT22;10808;48.010;11.326;2023-04-24T02:39:03;10.30;99.90
21298;DHT22;10808;48.010;11.326;2023-04-24T02:41:29;10.30;99.90
21298;DHT22;10808;48.010;11.326;2023-04-24T02:44:00;10.20;99.90
21298;DHT22;10808;48.010;11.326;2023-04-24T02:46:26;10.20;99.90
21298;DHT22;10808;48.010;11.326;2023-04-24T02:48:52;10.20;99.90
21298;DHT22;10808;48.010;11.326;2023-04-24T02:51:18;10.20;99.90
21298;DHT22;10808;48.010;11.326;2023-04-24T02:53:44;10.20;99.90
21298;DHT22;10808;48.010;11.326;2023-04-24T02:56:10;10.30;99.90
21298;DHT22;10808;48.010;11.326;2023-04-24T02:58:38;10.30;99.90
21298;DHT22;10808;48.010;11.326;2023-04-24T03:01:04;10.30;99.90
21298;DHT22;10808;48.010;11.326;2023-04-24T03:03:30;10.20;99.90
21298;DHT22;10808;48.010;11.326;2023-04-24T03:05:57;10.20;99.90
21298;DHT22;10808;48.010;11.326;2023-04-24T03:08:23;10.10;99.90
21298;DHT22;10808;48.010;11.326;2023-04-24T03:10:49;10.10;99.90
21298;DHT22;10808;48.010;11.326;2023-04-24T03:13:16;10.10;99.90
21298;DHT22;10808;48.010;11.326;2023-04-24T03:15:42;10.10;99.90
21298;DHT22;10808;48.010;11.326;2023-04-24T03:18:08;10.00;99.90
21298;DHT22;10808;48.010;11.326;2023-04-24T03:20:34;10.10;99.90
21298;DHT22;10808;48.010;11.326;2023-04-24T03:23:02;10.10;99.90
21298;DHT22;10808;48.010;11.326;2023-04-24T03:25:28;10.00;99.90
21298;DHT22;10808;48.010;11.326;2023-04-24T03:27:54;10.10;99.90
21298;DHT22;10808;48.010;11.326;2023-04-24T03:30:21;10.00;99.90
21298;DHT22;10808;48.010;11.326;2023-04-24T03:32:47;10.10;99.90
21298;DHT22;10808;48.010;11.326;2023-04-24T03:35:13;10.10;99.90
21298;DHT22;10808;48.010;11.326;2023-04-24T03:37:39;10.20;99.90
21298;DHT22;10808;48.010;11.326;2023-04-24T03:40:05;10.30;99.90
21298;DHT22;10808;48.010;11.326;2023-04-24T03:42:32;10.30;99.90
21298;DHT22;10808;48.010;11.326;2023-04-24T03:44:58;10.40;99.90
21298;DHT22;10808;48.010;11.326;2023-04-24T03:47:24;10.40;99.90
21298;DHT22;10808;48.010;11.326;2023-04-24T03:49:50;10.50;99.90
21298;DHT22;10808;48.010;11.326;2023-04-24T03:52:17;10.40;99.90
21298;DHT22;10808;48.010;11.326;2023-04-24T03:54:43;10.50;99.90
21298;DHT22;10808;48.010;11.326;2023-04-24T03:57:09;10.50;99.90
21298;DHT22;10808;48.010;11.326;2023-04-24T03:59:35;10.50;99.90
21298;DHT22;10808;48.010;11.326;2023-04-24T04:02:01;10.60;99.90
21298;DHT22;10808;48.010;11.326;2023-04-24T04:04:27;10.50;99.90
21298;DHT22;10808;48.010;11.326;2023-04-24T04:06:53;10.60;99.90
21298;DHT22;10808;48.010;11.326;2023-04-24T04:09:19;10.60;99.90
21298;DHT22;10808;48.010;11.326;2023-04-24T04:11:45;10.60;99.90
21298;DHT22;10808;48.010;11.326;2023-04-24T04:14:11;10.60;99.90
21298;DHT22;10808;48.010;11.326;2023-04-24T04:16:38;10.60;99.90
21298;DHT22;10808;48.010;11.326;2023-04-24T04:19:04;10.60;99.90
21298;DHT22;10808;48.010;11.326;2023-04-24T04:21:31;10.60;99.90
21298;DHT22;10808;48.010;11.326;2023-04-24T04:23:57;10.60;99.90
21298;DHT22;10808;48.010;11.326;2023-04-24T04:26:23;10.60;99.90
21298;DHT22;10808;48.010;11.326;2023-04-24T04:28:54;10.40;99.90
21298;DHT22;10808;48.010;11.326;2023-04-24T04:31:20;10.40;99.90
21298;DHT22;10808;48.010;11.326;2023-04-24T04:33:46;10.30;99.90
21298;DHT22;10808;48.010;11.326;2023-04-24T04:36:12;10.30;99.90
21298;DHT22;10808;48.010;11.326;2023-04-24T04:38:38;10.30;99.90
21298;DHT22;10808;48.010;11.326;2023-04-24T04:41:06;10.30;99.90
21298;DHT22;10808;48.010;11.326;2023-04-24T04:43:32;10.30;99.90
21298;DHT22;10808;48.010;11.326;2023-04-24T04:45:59;10.30;99.90
21298;DHT22;10808;48.010;11.326;2023-04-24T04:48:27;10.30;99.90
21298;DHT22;10808;48.010;11.326;2023-04-24T04:50:53;10.30;99.90
21298;DHT22;10808;48.010;11.326;2023-04-24T04:53:19;10.30;99.90
21298;DHT22;10808;48.010;11.326;2023-04-24T04:55:45;10.40;99.90
21298;DHT22;10808;48.010;11.326;2023-04-24T04:58:12;10.30;99.90
21298;DHT22;10808;48.010;11.326;2023-04-24T05:00:38;10.30;99.90
21298;DHT22;10808;48.010;11.326;2023-04-24T05:03:05;10.20;99.90
21298;DHT22;10808;48.010;11.326;2023-04-24T05:05:31;10.20;99.90
21298;DHT22;10808;48.010;11.326;2023-04-24T05:07:57;10.30;99.90
21298;DHT22;10808;48.010;11.326;2023-04-24T05:10:23;10.20;99.90
21298;DHT22;10808;48.010;11.326;2023-04-24T05:12:49;10.30;99.90
21298;DHT22;10808;48.010;11.326;2023-04-24T05:15:15;10.30;99.90
21298;DHT22;10808;48.010;11.326;2023-04-24T05:17:41;10.20;99.90
21298;DHT22;10808;48.010;11.326;2023-04-24T05:20:07;10.20;99.90
21298;DHT22;10808;48.010;11.326;2023-04-24T05:22:34;10.20;99.90
21298;DHT22;10808;48.010;11.326;2023-04-24T05:25:00;10.10;99.90
21298;DHT22;10808;48.010;11.326;2023-04-24T05:27:26;10.10;99.90
21298;DHT22;10808;48.010;11.326;2023-04-24T05:29:52;10.20;99.90
21298;DHT22;10808;48.010;11.326;2023-04-24T05:32:18;10.10;99.90
21298;DHT22;10808;48.010;11.326;2023-04-24T05:34:44;10.20;99.90
21298;DHT22;10808;48.010;11.326;2023-04-24T05:37:10;10.20;99.90
21298;DHT22;10808;48.010;11.326;2023-04-24T05:39:36;10.20;99.90
21298;DHT22;10808;48.010;11.326;2023-04-24T05:42:02;10.20;99.90
21298;DHT22;10808;48.010;11.326;2023-04-24T05:44:30;10.20;99.90
21298;DHT22;10808;48.010;11.326;2023-04-24T05:46:56;10.20;99.90
21298;DHT22;10808;48.010;11.326;2023-04-24T05:49:22;10.10;99.90
21298;DHT22;10808;48.010;11.326;2023-04-24T05:51:48;10.10;99.90
21298;DHT22;10808;48.010;11.326;2023-04-24T05:54:14;10.20;99.90
21298;DHT22;10808;48.010;11.326;2023-04-24T05:56:40;10.20;99.90
21298;DHT22;10808;48.010;11.326;2023-04-24T05:59:07;10.20;99.90
21298;DHT22;10808;48.010;11.326;2023-04-24T06:01:34;10.30;99.90
21298;DHT22;10808;48.010;11.326;2023-04-24T06:04:00;10.30;99.90
21298;DHT22;10808;48.010;11.326;2023-04-24T06:06:26;10.30;99.90
21298;DHT22;10808;48.010;11.326;2023-04-24T06:08:53;10.30;99.90
21298;DHT22;10808;48.010;11.326;2023-04-24T06:11:19;10.30;99.90
21298;DHT22;10808;48.010;11.326;2023-04-24T06:13:45;10.30;99.90
21298;DHT22;10808;48.010;11.326;2023-04-24T06:16:11;10.30;99.90
21298;DHT22;10808;48.010;11.326;2023-04-24T06:18:37;10.30;99.90
21298;DHT22;10808;48.010;11.326;2023-04-24T06:21:03;10.30;99.90
21298;DHT22;10808;48.010;11.326;2023-04-24T06:23:29;10.30;99.90
21298;DHT22;10808;48.010;11.326;2023-04-24T06:25:58;10.30;99.90
21298;DHT22;10808;48.010;11.326;2023-04-24T06:28:25;10.30;99.90
21298;DHT22;10808;48.010;11.326;2023-04-24T06:30:51;10.30;99.90
21298;DHT22;10808;48.010;11.326;2023-04-24T06:33:17;10.40;99.90
21298;DHT22;10808;48.010;11.326;2023-04-24T06:35:43;10.40;99.90
21298;DHT22;10808;48.010;11.326;2023-04-24T06:38:09;10.30;99.90
21298;DHT22;10808;48.010;11.326;2023-04-24T06:40:35;10.40;99.90
21298;DHT22;10808;48.010;11.326;2023-04-24T06:43:01;10.40;99.90
21298;DHT22;10808;48.010;11.326;2023-04-24T06:45:30;10.40;99.90
21298;DHT22;10808;48.010;11.326;2023-04-24T06:47:56;10.50;99.90
21298;DHT22;10808;48.010;11.326;2023-04-24T06:50:22;10.60;99.90
21298;DHT22;10808;48.010;11.326;2023-04-24T06:52:48;10.60;99.90
21298;DHT22;10808;48.010;11.326;2023-04-24T06:55:14;10.60;99.90
21298;DHT22;10808;48.010;11.326;2023-04-24T06:57:42;10.70;99.90
21298;DHT22;10808;48.010;11.326;2023-04-24T07:00:10;10.80;99.90
21298;DHT22;10808;48.010;11.326;2023-04-24T07:02:36;10.80;99.90
21298;DHT22;10808;48.010;11.326;2023-04-24T07:05:04;10.80;99.90
21298;DHT22;10808;48.010;11.326;2023-04-24T07:07:30;10.80;99.90
21298;DHT22;10808;48.010;11.326;2023-04-24T07:09:57;10.80;99.90
21298;DHT22;10808;48.010;11.326;2023-04-24T07:12:25;10.80;99.90
21298;DHT22;10808;48.010;11.326;2023-04-24T07:14:51;10.90;99.90
21298;DHT22;10808;48.010;11.326;2023-04-24T07:17:17;11.00;99.90
21298;DHT22;10808;48.010;11.326;2023-04-24T07:19:43;11.00;99.90
21298;DHT22;10808;48.010;11.326;2023-04-24T07:22:09;11.10;99.90
21298;DHT22;10808;48.010;11.326;2023-04-24T07:24:37;11.20;99.90
21298;DHT22;10808;48.010;11.326;2023-04-24T07:27:04;11.30;99.90
21298;DHT22;10808;48.010;11.326;2023-04-24T07:29:30;11.30;99.90
21298;DHT22;10808;48.010;11.326;2023-04-24T07:31:56;11.20;99.90
21298;DHT22;10808;48.010;11.326;2023-04-24T07:34:22;11.20;99.90
21298;DHT22;10808;48.010;11.326;2023-04-24T07:36:48;11.20;99.90
21298;DHT22;10808;48.010;11.326;2023-04-24T07:39:14;11.20;99.90
21298;DHT22;10808;48.010;11.326;2023-04-24T07:41:40;11.30;99.90
21298;DHT22;10808;48.010;11.326;2023-04-24T07:44:06;11.40;99.90
21298;DHT22;10808;48.010;11.326;2023-04-24T07:46:32;11.40;99.90
21298;DHT22;10808;48.010;11.326;2023-04-24T07:48:58;11.40;99.90
21298;DHT22;10808;48.010;11.326;2023-04-24T07:51:27;11.40;99.90
21298;DHT22;10808;48.010;11.326;2023-04-24T07:53:53;11.50;99.90
21298;DHT22;10808;48.010;11.326;2023-04-24T07:56:21;11.60;99.90
21298;DHT22;10808;48.010;11.326;2023-04-24T07:58:50;11.60;99.90
21298;DHT22;10808;48.010;11.326;2023-04-24T08:01:16;11.70;99.90
21298;DHT22;10808;48.010;11.326;2023-04-24T08:03:42;11.60;99.90
21298;DHT22;10808;48.010;11.326;2023-04-24T08:06:08;11.70;99.90
21298;DHT22;10808;48.010;11.326;2023-04-24T08:08:34;11.70;99.90
21298;DHT22;10808;48.010;11.326;2023-04-24T08:11:00;11.70;99.90
21298;DHT22;10808;48.010;11.326;2023-04-24T08:13:26;11.70;99.90
21298;DHT22;10808;48.010;11.326;2023-04-24T08:15:53;11.70;99.90
21298;DHT22;10808;48.010;11.326;2023-04-24T08:18:19;11.80;99.90
21298;DHT22;10808;48.010;11.326;2023-04-24T08:20:45;11.70;99.90
21298;DHT22;10808;48.010;11.326;2023-04-24T08:23:11;11.70;99.90
21298;DHT22;10808;48.010;11.326;2023-04-24T08:25:37;11.60;99.90
21298;DHT22;10808;48.010;11.326;2023-04-24T08:28:05;11.40;99.90
21298;DHT22;10808;48.010;11.326;2023-04-24T08:30:31;11.20;99.90
21298;DHT22;10808;48.010;11.326;2023-04-24T08:32:57;11.00;99.90
21298;DHT22;10808;48.010;11.326;2023-04-24T08:35:23;10.90;99.90
21298;DHT22;10808;48.010;11.326;2023-04-24T08:37:49;10.80;99.90
21298;DHT22;10808;48.010;11.326;2023-04-24T08:40:16;10.80;99.90
21298;DHT22;10808;48.010;11.326;2023-04-24T08:42:43;10.90;99.90
21298;DHT22;10808;48.010;11.326;2023-04-24T08:45:13;10.90;99.90
21298;DHT22;10808;48.010;11.326;2023-04-24T08:47:40;10.90;99.90
21298;DHT22;10808;48.010;11.326;2023-04-24T08:50:07;11.00;99.90
21298;DHT22;10808;48.010;11.326;2023-04-24T08:52:34;11.00;99.90
21298;DHT22;10808;48.010;11.326;2023-04-24T08:55:01;11.00;99.90
21298;DHT22;10808;48.010;11.326;2023-04-24T08:57:27;11.00;99.90
21298;DHT22;10808;48.010;11.326;2023-04-24T08:59:54;11.00;99.90
21298;DHT22;10808;48.010;11.326;2023-04-24T09:02:21;11.00;99.90
21298;DHT22;10808;48.010;11.326;2023-04-24T09:04:48;11.10;99.90
21298;DHT22;10808;48.010;11.326;2023-04-24T09:07:16;11.10;99.90
21298;DHT22;10808;48.010;11.326;2023-04-24T09:09:44;11.20;99.90
21298;DHT22;10808;48.010;11.326;2023-04-24T09:12:10;11.30;99.90
21298;DHT22;10808;48.010;11.326;2023-04-24T09:14:37;11.50;99.90
21298;DHT22;10808;48.010;11.326;2023-04-24T09:17:08;11.60;99.90
21298;DHT22;10808;48.010;11.326;2023-04-24T09:19:34;11.70;99.90
21298;DHT22;10808;48.010;11.326;2023-04-24T09:22:04;11.80;99.90
21298;DHT22;10808;48.010;11.326;2023-04-24T09:24:30;11.90;99.90
21298;DHT22;10808;48.010;11.326;2023-04-24T09:26:59;11.90;99.90
21298;DHT22;10808;48.010;11.326;2023-04-24T09:29:27;12.00;99.90
21298;DHT22;10808;48.010;11.326;2023-04-24T09:31:53;12.10;99.90
21298;DHT22;10808;48.010;11.326;2023-04-24T09:34:24;12.10;99.90
21298;DHT22;10808;48.010;11.326;2023-04-24T09:36:51;12.10;99.90
21298;DHT22;10808;48.010;11.326;2023-04-24T09:39:18;12.20;99.90
21298;DHT22;10808;48.010;11.326;2023-04-24T09:41:55;12.30;99.90
21298;DHT22;10808;48.010;11.326;2023-04-24T09:44:26;12.30;99.90
21298;DHT22;10808;48.010;11.326;2023-04-24T09:46:57;12.40;99.90
21298;DHT22;10808;48.010;11.326;2023-04-24T09:49:25;12.50;99.90
21298;DHT22;10808;48.010;11.326;2023-04-24T09:51:52;12.70;99.90
21298;DHT22;10808;48.010;11.326;2023-04-24T09:54:27;12.90;99.90
21298;DHT22;10808;48.010;11.326;2023-04-24T09:56:55;13.10;99.90
21298;DHT22;10808;48.010;11.326;2023-04-24T09:59:21;13.20;99.90
21298;DHT22;10808;48.010;11.326;2023-04-24T10:01:48;13.30;99.90
21298;DHT22;10808;48.010;11.326;2023-04-24T10:04:23;13.50;99.90
21298;DHT22;10808;48.010;11.326;2023-04-24T10:06:52;13.60;99.90
21298;DHT22;10808;48.010;11.326;2023-04-24T10:09:20;13.70;99.90
21298;DHT22;10808;48.010;11.326;2023-04-24T10:11:49;13.80;99.90
21298;DHT22;10808;48.010;11.326;2023-04-24T10:14:17;13.80;99.90
21298;DHT22;10808;48.010;11.326;2023-04-24T10:16:44;13.80;99.90
21298;DHT22;10808;48.010;11.326;2023-04-24T10:19:16;13.80;99.90
21298;DHT22;10808;48.010;11.326;2023-04-24T10:21:44;13.80;99.90
21298;DHT22;10808;48.010;11.326;2023-04-24T10:24:18;13.90;99.90
21298;DHT22;10808;48.010;11.326;2023-04-24T10:26:45;13.90;99.90
21298;DHT22;10808;48.010;11.326;2023-04-24T10:29:12;13.80;99.90
21298;DHT22;10808;48.010;11.326;2023-04-24T10:31:39;13.70;99.90
21298;DHT22;10808;48.010;11.326;2023-04-24T10:34:06;13.60;99.90
21298;DHT22;10808;48.010;11.326;2023-04-24T10:36:39;13.60;99.90
21298;DHT22;10808;48.010;11.326;2023-04-24T10:39:09;13.30;99.90
21298;DHT22;10808;48.010;11.326;2023-04-24T10:41:38;12.70;99.90
21298;DHT22;10808;48.010;11.326;2023-04-24T10:44:08;12.20;99.90
21298;DHT22;10808;48.010;11.326;2023-04-24T10:46:36;11.90;99.90
21298;DHT22;10808;48.010;11.326;2023-04-24T10:49:06;11.80;99.90
21298;DHT22;10808;48.010;11.326;2023-04-24T10:51:53;11.90;99.90
21298;DHT22;10808;48.010;11.326;2023-04-24T10:56:52;12.10;99.90
21298;DHT22;10808;48.010;11.326;2023-04-24T10:59:25;12.30;99.90
21298;DHT22;10808;48.010;11.326;2023-04-24T11:01:53;12.50;99.90
21298;DHT22;10808;48.010;11.326;2023-04-24T11:04:29;12.60;99.90
21298;DHT22;10808;48.010;11.326;2023-04-24T11:06:57;12.70;99.90
21298;DHT22;10808;48.010;11.326;2023-04-24T11:09:27;12.80;99.90
21298;DHT22;10808;48.010;11.326;2023-04-24T11:12:07;12.80;99.90
21298;DHT22;10808;48.010;11.326;2023-04-24T11:17:29;12.90;99.90
21298;DHT22;10808;48.010;11.326;2023-04-24T11:20:03;13.10;99.90
21298;DHT22;10808;48.010;11.326;2023-04-24T11:22:34;13.30;99.90
21298;DHT22;10808;48.010;11.326;2023-04-24T11:25:04;13.60;99.90
21298;DHT22;10808;48.010;11.326;2023-04-24T11:27:32;13.80;99.90
21298;DHT22;10808;48.010;11.326;2023-04-24T11:30:00;14.10;99.90
21298;DHT22;10808;48.010;11.326;2023-04-24T11:32:37;14.30;99.90
21298;DHT22;10808;48.010;11.326;2023-04-24T11:37:36;14.90;99.90
21298;DHT22;10808;48.010;11.326;2023-04-24T11:40:04;15.00;99.90
21298;DHT22;10808;48.010;11.326;2023-04-24T11:42:35;15.00;99.20
21298;DHT22;10808;48.010;11.326;2023-04-24T11:45:01;14.80;99.00
21298;DHT22;10808;48.010;11.326;2023-04-24T11:47:31;14.80;99.00
21298;DHT22;10808;48.010;11.326;2023-04-24T11:50:00;14.70;99.40
21298;DHT22;10808;48.010;11.326;2023-04-24T11:52:27;14.40;99.60
21298;DHT22;10808;48.010;11.326;2023-04-24T11:54:53;14.20;99.90
21298;DHT22;10808;48.010;11.326;2023-04-24T11:57:20;13.60;99.90
21298;DHT22;10808;48.010;11.326;2023-04-24T11:59:47;13.00;99.90
21298;DHT22;10808;48.010;11.326;2023-04-24T12:02:25;12.70;99.90
21298;DHT22;10808;48.010;11.326;2023-04-24T12:04:52;12.60;99.90
21298;DHT22;10808;48.010;11.326;2023-04-24T12:07:18;12.40;99.90
21298;DHT22;10808;48.010;11.326;2023-04-24T12:09:47;12.20;99.90
21298;DHT22;10808;48.010;11.326;2023-04-24T12:12:15;12.20;99.90
21298;DHT22;10808;48.010;11.326;2023-04-24T12:14:49;12.10;99.90
21298;DHT22;10808;48.010;11.326;2023-04-24T12:17:27;12.00;99.90
21298;DHT22;10808;48.010;11.326;2023-04-24T12:20:01;12.00;99.90
21298;DHT22;10808;48.010;11.326;2023-04-24T12:22:42;12.10;99.90
21298;DHT22;10808;48.010;11.326;2023-04-24T12:25:10;12.00;99.90
21298;DHT22;10808;48.010;11.326;2023-04-24T12:27:36;11.80;99.90
21298;DHT22;10808;48.010;11.326;2023-04-24T12:30:05;11.90;99.90
21298;DHT22;10808;48.010;11.326;2023-04-24T12:32:31;11.90;99.90
21298;DHT22;10808;48.010;11.326;2023-04-24T12:35:00;11.90;99.90
21298;DHT22;10808;48.010;11.326;2023-04-24T12:37:33;11.90;99.90
21298;DHT22;10808;48.010;11.326;2023-04-24T12:40:00;11.90;99.90
21298;DHT22;10808;48.010;11.326;2023-04-24T12:42:28;11.90;99.90
21298;DHT22;10808;48.010;11.326;2023-04-24T12:45:00;11.80;99.90
21298;DHT22;10808;48.010;11.326;2023-04-24T12:47:29;11.70;99.90
21298;DHT22;10808;48.010;11.326;2023-04-24T12:49:56;11.60;99.90
21298;DHT22;10808;48.010;11.326;2023-04-24T12:52:23;11.50;99.90
21298;DHT22;10808;48.010;11.326;2023-04-24T12:54:56;11.50;99.90
21298;DHT22;10808;48.010;11.326;2023-04-24T12:57:23;11.60;99.90
21298;DHT22;10808;48.010;11.326;2023-04-24T12:59:49;11.80;99.90
21298;DHT22;10808;48.010;11.326;2023-04-24T13:02:16;12.00;99.90
21298;DHT22;10808;48.010;11.326;2023-04-24T13:04:46;12.40;99.90
21298;DHT22;10808;48.010;11.326;2023-04-24T13:07:13;12.70;99.90
21298;DHT22;10808;48.010;11.326;2023-04-24T13:09:41;12.80;99.90
21298;DHT22;10808;48.010;11.326;2023-04-24T13:12:08;12.80;99.90
21298;DHT22;10808;48.010;11.326;2023-04-24T13:14:34;12.80;99.90
21298;DHT22;10808;48.010;11.326;2023-04-24T13:17:01;12.80;99.90
21298;DHT22;10808;48.010;11.326;2023-04-24T13:19:27;12.80;99.90
21298;DHT22;10808;48.010;11.326;2023-04-24T13:21:56;12.70;99.90
21298;DHT22;10808;48.010;11.326;2023-04-24T13:24:23;12.50;99.90
21298;DHT22;10808;48.010;11.326;2023-04-24T13:26:53;12.20;99.90
21298;DHT22;10808;48.010;11.326;2023-04-24T13:29:19;12.10;99.90
21298;DHT22;10808;48.010;11.326;2023-04-24T13:31:50;11.90;99.90
21298;DHT22;10808;48.010;11.326;2023-04-24T13:34:19;11.70;99.90
21298;DHT22;10808;48.010;11.326;2023-04-24T13:36:46;11.70;99.90
21298;DHT22;10808;48.010;11.326;2023-04-24T13:39:12;11.80;99.90
21298;DHT22;10808;48.010;11.326;2023-04-24T13:41:38;11.70;99.90
21298;DHT22;10808;48.010;11.326;2023-04-24T13:44:06;11.70;99.90
21298;DHT22;10808;48.010;11.326;2023-04-24T13:46:32;11.90;99.90
21298;DHT22;10808;48.010;11.326;2023-04-24T13:48:58;12.00;99.90
21298;DHT22;10808;48.010;11.326;2023-04-24T13:51:27;12.00;99.90
21298;DHT22;10808;48.010;11.326;2023-04-24T13:53:54;12.00;99.90
21298;DHT22;10808;48.010;11.326;2023-04-24T13:56:21;12.00;99.90
21298;DHT22;10808;48.010;11.326;2023-04-24T13:58:48;11.90;99.90
21298;DHT22;10808;48.010;11.326;2023-04-24T14:01:14;11.90;99.90
21298;DHT22;10808;48.010;11.326;2023-04-24T14:03:42;12.10;99.90
21298;DHT22;10808;48.010;11.326;2023-04-24T14:06:09;12.30;99.90
21298;DHT22;10808;48.010;11.326;2023-04-24T14:08:35;12.40;99.90
21298;DHT22;10808;48.010;11.326;2023-04-24T14:11:01;12.60;99.90
21298;DHT22;10808;48.010;11.326;2023-04-24T14:13:27;12.80;99.90
21298;DHT22;10808;48.010;11.326;2023-04-24T14:15:53;12.90;99.90
21298;DHT22;10808;48.010;11.326;2023-04-24T14:18:19;13.00;99.90
21298;DHT22;10808;48.010;11.326;2023-04-24T14:20:45;13.20;99.90
21298;DHT22;10808;48.010;11.326;2023-04-24T14:23:11;13.30;99.90
21298;DHT22;10808;48.010;11.326;2023-04-24T14:25:37;13.20;99.90
21298;DHT22;10808;48.010;11.326;2023-04-24T14:28:03;13.10;99.90
21298;DHT22;10808;48.010;11.326;2023-04-24T14:30:31;13.10;99.90
21298;DHT22;10808;48.010;11.326;2023-04-24T14:32:57;13.10;99.90
21298;DHT22;10808;48.010;11.326;2023-04-24T14:35:23;13.10;99.90
21298;DHT22;10808;48.010;11.326;2023-04-24T14:37:49;13.20;99.90
21298;DHT22;10808;48.010;11.326;2023-04-24T14:40:15;13.30;99.90
21298;DHT22;10808;48.010;11.326;2023-04-24T14:42:41;13.40;99.60
21298;DHT22;10808;48.010;11.326;2023-04-24T14:45:07;13.40;99.90
21298;DHT22;10808;48.010;11.326;2023-04-24T14:47:34;13.50;99.90
21298;DHT22;10808;48.010;11.326;2023-04-24T14:50:00;13.40;99.90
21298;DHT22;10808;48.010;11.326;2023-04-24T14:52:26;13.40;99.50
21298;DHT22;10808;48.010;11.326;2023-04-24T14:54:52;13.40;99.90
21298;DHT22;10808;48.010;11.326;2023-04-24T14:57:18;13.80;99.90
21298;DHT22;10808;48.010;11.326;2023-04-24T14:59:44;14.20;99.50
21298;DHT22;10808;48.010;11.326;2023-04-24T15:02:10;14.30;98.80
21298;DHT22;10808;48.010;11.326;2023-04-24T15:04:36;14.50;98.40
21298;DHT22;10808;48.010;11.326;2023-04-24T15:07:02;14.60;98.00
21298;DHT22;10808;48.010;11.326;2023-04-24T15:09:28;14.50;96.60
21298;DHT22;10808;48.010;11.326;2023-04-24T15:11:54;14.30;97.30
21298;DHT22;10808;48.010;11.326;2023-04-24T15:14:21;14.20;96.80
21298;DHT22;10808;48.010;11.326;2023-04-24T15:16:47;14.10;97.10
21298;DHT22;10808;48.010;11.326;2023-04-24T15:19:13;14.10;96.90
21298;DHT22;10808;48.010;11.326;2023-04-24T15:21:39;13.90;96.00